sensor_id;sensor_type;location;lat;lon;timestamp;temperature;humidity
47482;DHT22;33219;47.410;9.730;2023-07-31T00:02:07;16.70;99.90
47482;DHT22;33219;47.410;9.730;2023-07-31T00:04:35;16.70;99.90
47482;DHT22;33219;47.410;9.730;2023-07-31T00:07:02;16.60;99.90
47482;DHT22;33219;47.410;9.730;2023-07-31T00:09:30;16.60;99.90
47482;DHT22;33219;47.410;9.730;2023-07-31T00:11:58;16.50;99.90
47482;DHT22;33219;47.410;9.730;2023-07-31T00:14:26;16.50;99.90
47482;DHT22;33219;47.410;9.730;2023-07-31T00:16:54;16.50;99.90
47482;DHT22;33219;47.410;9.730;2023-07-31T00:19:21;16.40;99.90
47482;DHT22;33219;47.410;9.730;2023-07-31T00:21:49;16.40;99.90
47482;DHT22;33219;47.410;9.730;2023-07-31T00:24:16;16.40;99.90
47482;DHT22;33219;47.410;9.730;2023-07-31T00:26:44;16.40;99.90
47482;DHT22;33219;47.410;9.730;2023-07-31T00:29:11;16.30;99.90
47482;DHT22;33219;47.410;9.730;2023-07-31T00:31:39;16.30;99.90
47482;DHT22;33219;47.410;9.730;2023-07-31T00:34:07;16.30;99.90
47482;DHT22;33219;47.410;9.730;2023-07-31T00:36:34;16.30;99.90
47482;DHT22;33219;47.410;9.730;2023-07-31T00:39:02;16.20;99.90
47482;DHT22;33219;47.410;9.730;2023-07-31T00:41:31;16.20;99.90
47482;DHT22;33219;47.410;9.730;2023-07-31T00:43:58;16.20;99.90
47482;DHT22;33219;47.410;9.730;2023-07-31T00:46:26;16.10;99.90
47482;DHT22;33219;47.410;9.730;2023-07-31T00:48:53;16.10;99.90
47482;DHT22;33219;47.410;9.730;2023-07-31T00:51:21;16.10;99.90
47482;DHT22;33219;47.410;9.730;2023-07-31T00:53:49;16.10;99.90
47482;DHT22;33219;47.410;9.730;2023-07-31T00:56:17;16.20;99.90
47482;DHT22;33219;47.410;9.730;2023-07-31T00:58:44;16.20;99.90
47482;DHT22;33219;47.410;9.730;2023-07-31T01:01:12;16.30;99.90
47482;DHT22;33219;47.410;9.730;2023-07-31T01:03:39;16.30;99.90
47482;DHT22;33219;47.410;9.730;2023-07-31T01:06:19;16.40;99.90
47482;DHT22;33219;47.410;9.730;2023-07-31T01:11:24;16.40;99.90
47482;DHT22;33219;47.410;9.730;2023-07-31T01:13:50;16.40;99.90
47482;DHT22;33219;47.410;9.730;2023-07-31T01:16:18;16.40;99.90
47482;DHT22;33219;47.410;9.730;2023-07-31T01:18:46;16.40;99.90
47482;DHT22;33219;47.410;9.730;2023-07-31T01:23:57;16.40;99.90
47482;DHT22;33219;47.410;9.730;2023-07-31T01:26:23;16.40;99.90
47482;DHT22;33219;47.410;9.730;2023-07-31T01:28:56;16.50;99.90
47482;DHT22;33219;47.410;9.730;2023-07-31T01:31:25;16.50;99.90
47482;DHT22;33219;47.410;9.730;2023-07-31T01:33:56;16.50;99.90
47482;DHT22;33219;47.410;9.730;2023-07-31T01:36:24;16.50;99.90
47482;DHT22;33219;47.410;9.730;2023-07-31T01:38:52;16.60;99.90
47482;DHT22;33219;47.410;9.730;2023-07-31T01:41:20;16.60;99.90
47482;DHT22;33219;47.410;9.730;2023-07-31T01:43:48;16.60;99.90
47482;DHT22;33219;47.410;9.730;2023-07-31T01:46:15;16.60;99.90
47482;DHT22;33219;47.410;9.730;2023-07-31T01:48:43;16.60;99.90
47482;DHT22;33219;47.410;9.730;2023-07-31T01:51:10;16.60;99.90
47482;DHT22;33219;47.410;9.730;2023-07-31T01:53:38;16.60;99.90
47482;DHT22;33219;47.410;9.730;2023-07-31T01:56:05;16.60;99.90
47482;DHT22;33219;47.410;9.730;2023-07-31T01:58:33;16.60;99.90
47482;DHT22;33219;47.410;9.730;2023-07-31T02:01:00;16.60;99.90
47482;DHT22;33219;47.410;9.730;2023-07-31T02:03:29;16.60;99.90
47482;DHT22;33219;47.410;9.730;2023-07-31T02:05:57;16.60;99.90
47482;DHT22;33219;47.410;9.730;2023-07-31T02:08:24;16.60;99.90
47482;DHT22;33219;47.410;9.730;2023-07-31T02:10:52;16.50;99.90
47482;DHT22;33219;47.410;9.730;2023-07-31T02:13:19;16.60;99.90
47482;DHT22;33219;47.410;9.730;2023-07-31T02:15:47;16.50;99.90
47482;DHT22;33219;47.410;9.730;2023-07-31T02:18:15;16.60;99.90
47482;DHT22;33219;47.410;9.730;2023-07-31T02:20:42;16.60;99.90
47482;DHT22;33219;47.410;9.730;2023-07-31T02:23:12;16.50;99.90
47482;DHT22;33219;47.410;9.730;2023-07-31T02:25:39;16.60;99.90
47482;DHT22;33219;47.410;9.730;2023-07-31T02:28:07;16.60;99.90
47482;DHT22;33219;47.410;9.730;2023-07-31T02:30:34;16.50;99.90
47482;DHT22;33219;47.410;9.730;2023-07-31T02:33:02;16.50;99.90
47482;DHT22;33219;47.410;9.730;2023-07-31T02:35:30;16.50;99.90
47482;DHT22;33219;47.410;9.730;2023-07-31T02:37:57;16.40;99.90
47482;DHT22;33219;47.410;9.730;2023-07-31T02:40:25;16.40;99.90
47482;DHT22;33219;47.410;9.730;2023-07-31T02:42:52;16.30;99.90
47482;DHT22;33219;47.410;9.730;2023-07-31T02:45:20;16.20;99.90
47482;DHT22;33219;47.410;9.730;2023-07-31T02:47:47;16.20;99.90
47482;DHT22;33219;47.410;9.730;2023-07-31T02:50:15;16.10;99.90
47482;DHT22;33219;47.410;9.730;2023-07-31T02:52:43;16.10;99.90
47482;DHT22;33219;47.410;9.730;2023-07-31T02:55:10;16.10;99.90
47482;DHT22;33219;47.410;9.730;2023-07-31T02:57:38;16.00;99.90
47482;DHT22;33219;47.410;9.730;2023-07-31T03:00:06;16.00;99.90
47482;DHT22;33219;47.410;9.730;2023-07-31T03:02:34;16.00;99.90
47482;DHT22;33219;47.410;9.730;2023-07-31T03:05:01;15.90;99.90
47482;DHT22;33219;47.410;9.730;2023-07-31T03:07:29;15.90;99.90
47482;DHT22;33219;47.410;9.730;2023-07-31T03:09:57;15.90;99.90
47482;DHT22;33219;47.410;9.730;2023-07-31T03:12:24;15.90;99.90
47482;DHT22;33219;47.410;9.730;2023-07-31T03:14:52;15.90;99.90
47482;DHT22;33219;47.410;9.730;2023-07-31T03:17:19;15.90;99.90
47482;DHT22;33219;47.410;9.730;2023-07-31T03:19:47;15.90;99.90
47482;DHT22;33219;47.410;9.730;2023-07-31T03:22:14;15.90;99.90
47482;DHT22;33219;47.410;9.730;2023-07-31T03:24:42;15.90;99.90
47482;DHT22;33219;47.410;9.730;2023-07-31T03:27:10;15.90;99.90
47482;DHT22;33219;47.410;9.730;2023-07-31T03:29:37;15.90;99.90
47482;DHT22;33219;47.410;9.730;2023-07-31T03:32:05;15.80;99.90
47482;DHT22;33219;47.410;9.730;2023-07-31T03:34:33;15.80;99.90
47482;DHT22;33219;47.410;9.730;2023-07-31T03:37:00;15.70;99.90
47482;DHT22;33219;47.410;9.730;2023-07-31T03:39:28;15.60;99.90
47482;DHT22;33219;47.410;9.730;2023-07-31T03:41:55;15.60;99.90
47482;DHT22;33219;47.410;9.730;2023-07-31T03:44:23;15.50;99.90
47482;DHT22;33219;47.410;9.730;2023-07-31T03:46:50;15.50;99.90
47482;DHT22;33219;47.410;9.730;2023-07-31T03:49:18;15.40;99.90
47482;DHT22;33219;47.410;9.730;2023-07-31T03:51:46;15.40;99.90
47482;DHT22;33219;47.410;9.730;2023-07-31T03:54:13;15.40;99.90
47482;DHT22;33219;47.410;9.730;2023-07-31T03:56:42;15.40;99.90
47482;DHT22;33219;47.410;9.730;2023-07-31T03:59:10;15.30;99.90
47482;DHT22;33219;47.410;9.730;2023-07-31T04:01:37;15.30;99.90
47482;DHT22;33219;47.410;9.730;2023-07-31T04:04:05;15.20;99.90
47482;DHT22;33219;47.410;9.730;2023-07-31T04:06:32;15.20;99.90
47482;DHT22;33219;47.410;9.730;2023-07-31T04:09:01;15.20;99.90
47482;DHT22;33219;47.410;9.730;2023-07-31T04:11:29;15.10;99.90
47482;DHT22;33219;47.410;9.730;2023-07-31T04:13:56;15.10;99.90
47482;DHT22;33219;47.410;9.730;2023-07-31T04:16:24;15.10;99.90
47482;DHT22;33219;47.410;9.730;2023-07-31T04:18:52;15.10;99.90
47482;DHT22;33219;47.410;9.730;2023-07-31T04:21:19;15.10;99.90
47482;DHT22;33219;47.410;9.730;2023-07-31T04:23:47;15.10;99.90
47482;DHT22;33219;47.410;9.730;2023-07-31T04:26:14;15.20;99.90
47482;DHT22;33219;47.410;9.730;2023-07-31T04:28:42;15.20;99.90
47482;DHT22;33219;47.410;9.730;2023-07-31T04:31:10;15.30;99.90
47482;DHT22;33219;47.410;9.730;2023-07-31T04:33:37;15.30;99.90
47482;DHT22;33219;47.410;9.730;2023-07-31T04:36:05;15.30;99.90
47482;DHT22;33219;47.410;9.730;2023-07-31T04:38:32;15.30;99.90
47482;DHT22;33219;47.410;9.730;2023-07-31T04:41:00;15.30;99.90
47482;DHT22;33219;47.410;9.730;2023-07-31T04:43:28;15.30;99.90
47482;DHT22;33219;47.410;9.730;2023-07-31T04:45:55;15.40;99.90
47482;DHT22;33219;47.410;9.730;2023-07-31T04:48:23;15.40;99.90
47482;DHT22;33219;47.410;9.730;2023-07-31T04:50:50;15.50;99.90
47482;DHT22;33219;47.410;9.730;2023-07-31T04:53:19;15.60;99.90
47482;DHT22;33219;47.410;9.730;2023-07-31T04:55:47;15.70;99.90
47482;DHT22;33219;47.410;9.730;2023-07-31T04:58:14;15.80;99.90
47482;DHT22;33219;47.410;9.730;2023-07-31T05:00:42;16.00;99.90
47482;DHT22;33219;47.410;9.730;2023-07-31T05:03:09;16.10;99.90
47482;DHT22;33219;47.410;9.730;2023-07-31T05:05:38;16.20;99.90
47482;DHT22;33219;47.410;9.730;2023-07-31T05:08:05;16.30;99.90
47482;DHT22;33219;47.410;9.730;2023-07-31T05:10:33;16.40;99.90
47482;DHT22;33219;47.410;9.730;2023-07-31T05:13:00;16.40;99.90
47482;DHT22;33219;47.410;9.730;2023-07-31T05:15:30;16.40;99.90
47482;DHT22;33219;47.410;9.730;2023-07-31T05:17:57;16.50;99.90
47482;DHT22;33219;47.410;9.730;2023-07-31T05:20:25;16.50;99.90
47482;DHT22;33219;47.410;9.730;2023-07-31T05:22:54;16.50;99.90
47482;DHT22;33219;47.410;9.730;2023-07-31T05:25:21;16.60;99.90
47482;DHT22;33219;47.410;9.730;2023-07-31T05:27:49;16.70;99.90
47482;DHT22;33219;47.410;9.730;2023-07-31T05:30:17;16.80;99.90
47482;DHT22;33219;47.410;9.730;2023-07-31T05:32:44;17.00;99.90
47482;DHT22;33219;47.410;9.730;2023-07-31T05:35:12;17.10;99.90
47482;DHT22;33219;47.410;9.730;2023-07-31T05:37:39;17.20;99.90
47482;DHT22;33219;47.410;9.730;2023-07-31T05:40:07;17.20;99.90
47482;DHT22;33219;47.410;9.730;2023-07-31T05:42:35;17.30;99.90
47482;DHT22;33219;47.410;9.730;2023-07-31T05:45:06;17.30;99.90
47482;DHT22;33219;47.410;9.730;2023-07-31T05:47:34;17.30;99.90
47482;DHT22;33219;47.410;9.730;2023-07-31T05:50:01;17.20;99.90
47482;DHT22;33219;47.410;9.730;2023-07-31T05:52:29;17.20;99.90
47482;DHT22;33219;47.410;9.730;2023-07-31T05:54:56;17.20;99.90
47482;DHT22;33219;47.410;9.730;2023-07-31T05:57:24;17.20;99.90
47482;DHT22;33219;47.410;9.730;2023-07-31T05:59:52;17.10;99.90
47482;DHT22;33219;47.410;9.730;2023-07-31T06:02:20;17.10;99.90
47482;DHT22;33219;47.410;9.730;2023-07-31T06:04:47;17.10;99.90
47482;DHT22;33219;47.410;9.730;2023-07-31T06:07:15;17.10;99.90
47482;DHT22;33219;47.410;9.730;2023-07-31T06:09:42;17.20;99.90
47482;DHT22;33219;47.410;9.730;2023-07-31T06:12:10;17.40;99.90
47482;DHT22;33219;47.410;9.730;2023-07-31T06:14:38;17.40;99.90
47482;DHT22;33219;47.410;9.730;2023-07-31T06:17:05;17.50;99.90
47482;DHT22;33219;47.410;9.730;2023-07-31T06:19:33;17.60;99.90
47482;DHT22;33219;47.410;9.730;2023-07-31T06:22:00;17.80;99.90
47482;DHT22;33219;47.410;9.730;2023-07-31T06:24:28;18.00;99.90
47482;DHT22;33219;47.410;9.730;2023-07-31T06:26:56;18.10;99.90
47482;DHT22;33219;47.410;9.730;2023-07-31T06:29:24;18.20;99.90
47482;DHT22;33219;47.410;9.730;2023-07-31T06:31:51;18.30;99.90
47482;DHT22;33219;47.410;9.730;2023-07-31T06:34:19;18.40;99.90
47482;DHT22;33219;47.410;9.730;2023-07-31T06:36:46;18.40;99.90
47482;DHT22;33219;47.410;9.730;2023-07-31T06:39:14;18.40;99.90
47482;DHT22;33219;47.410;9.730;2023-07-31T06:41:42;18.60;99.90
47482;DHT22;33219;47.410;9.730;2023-07-31T06:44:10;18.70;99.90
47482;DHT22;33219;47.410;9.730;2023-07-31T06:46:38;18.80;99.90
47482;DHT22;33219;47.410;9.730;2023-07-31T06:49:05;18.90;99.90
47482;DHT22;33219;47.410;9.730;2023-07-31T06:51:33;18.80;99.90
47482;DHT22;33219;47.410;9.730;2023-07-31T06:54:02;18.80;99.90
47482;DHT22;33219;47.410;9.730;2023-07-31T06:56:29;18.80;99.90
47482;DHT22;33219;47.410;9.730;2023-07-31T06:58:57;18.80;99.90
47482;DHT22;33219;47.410;9.730;2023-07-31T07:01:25;18.80;99.90
47482;DHT22;33219;47.410;9.730;2023-07-31T07:03:52;18.70;99.90
47482;DHT22;33219;47.410;9.730;2023-07-31T07:06:21;18.80;99.90
47482;DHT22;33219;47.410;9.730;2023-07-31T07:08:49;18.80;99.90
47482;DHT22;33219;47.410;9.730;2023-07-31T07:11:16;19.00;99.90
47482;DHT22;33219;47.410;9.730;2023-07-31T07:13:44;19.30;99.90
47482;DHT22;33219;47.410;9.730;2023-07-31T07:16:11;19.60;99.90
47482;DHT22;33219;47.410;9.730;2023-07-31T07:18:39;19.80;99.90
47482;DHT22;33219;47.410;9.730;2023-07-31T07:21:06;20.00;99.90
47482;DHT22;33219;47.410;9.730;2023-07-31T07:23:34;19.90;99.90
47482;DHT22;33219;47.410;9.730;2023-07-31T07:26:02;20.00;99.90
47482;DHT22;33219;47.410;9.730;2023-07-31T07:28:30;19.90;99.90
47482;DHT22;33219;47.410;9.730;2023-07-31T07:30:57;19.80;99.90
47482;DHT22;33219;47.410;9.730;2023-07-31T07:33:25;19.90;99.90
47482;DHT22;33219;47.410;9.730;2023-07-31T07:35:52;19.90;99.90
47482;DHT22;33219;47.410;9.730;2023-07-31T07:38:20;19.90;99.90
47482;DHT22;33219;47.410;9.730;2023-07-31T07:40:47;20.00;99.90
47482;DHT22;33219;47.410;9.730;2023-07-31T07:43:16;20.10;99.90
47482;DHT22;33219;47.410;9.730;2023-07-31T07:45:44;20.50;99.90
47482;DHT22;33219;47.410;9.730;2023-07-31T07:48:11;20.70;99.90
47482;DHT22;33219;47.410;9.730;2023-07-31T07:50:39;21.10;99.90
47482;DHT22;33219;47.410;9.730;2023-07-31T07:53:07;21.40;99.90
47482;DHT22;33219;47.410;9.730;2023-07-31T07:55:35;21.70;99.90
47482;DHT22;33219;47.410;9.730;2023-07-31T07:58:03;21.90;99.90
47482;DHT22;33219;47.410;9.730;2023-07-31T08:00:30;22.10;99.90
47482;DHT22;33219;47.410;9.730;2023-07-31T08:02:58;21.90;99.70
47482;DHT22;33219;47.410;9.730;2023-07-31T08:05:25;22.00;99.60
47482;DHT22;33219;47.410;9.730;2023-07-31T08:07:53;21.80;99.90
47482;DHT22;33219;47.410;9.730;2023-07-31T08:10:20;21.80;99.90
47482;DHT22;33219;47.410;9.730;2023-07-31T08:12:48;22.20;99.90
47482;DHT22;33219;47.410;9.730;2023-07-31T08:15:15;22.40;99.40
47482;DHT22;33219;47.410;9.730;2023-07-31T08:17:43;23.20;98.10
47482;DHT22;33219;47.410;9.730;2023-07-31T08:20:11;24.20;95.90
47482;DHT22;33219;47.410;9.730;2023-07-31T08:22:39;24.80;94.70
47482;DHT22;33219;47.410;9.730;2023-07-31T08:25:07;25.80;93.70
47482;DHT22;33219;47.410;9.730;2023-07-31T08:27:35;26.50;92.70
47482;DHT22;33219;47.410;9.730;2023-07-31T08:30:06;27.40;89.70
47482;DHT22;33219;47.410;9.730;2023-07-31T08:32:33;27.80;84.70
47482;DHT22;33219;47.410;9.730;2023-07-31T08:35:01;27.70;84.90
47482;DHT22;33219;47.410;9.730;2023-07-31T08:37:29;27.60;83.00
47482;DHT22;33219;47.410;9.730;2023-07-31T08:39:56;28.40;82.30
47482;DHT22;33219;47.410;9.730;2023-07-31T08:42:24;28.60;83.80
47482;DHT22;33219;47.410;9.730;2023-07-31T08:44:53;28.00;81.30
47482;DHT22;33219;47.410;9.730;2023-07-31T08:47:21;28.10;80.90
47482;DHT22;33219;47.410;9.730;2023-07-31T08:49:49;27.30;81.00
47482;DHT22;33219;47.410;9.730;2023-07-31T08:52:18;26.70;81.80
47482;DHT22;33219;47.410;9.730;2023-07-31T08:54:46;26.40;82.10
47482;DHT22;33219;47.410;9.730;2023-07-31T08:57:14;26.90;83.00
47482;DHT22;33219;47.410;9.730;2023-07-31T08:59:42;27.40;82.10
47482;DHT22;33219;47.410;9.730;2023-07-31T09:02:10;27.30;81.90
47482;DHT22;33219;47.410;9.730;2023-07-31T09:04:39;26.90;82.60
47482;DHT22;33219;47.410;9.730;2023-07-31T09:07:06;25.70;82.90
47482;DHT22;33219;47.410;9.730;2023-07-31T09:09:35;24.60;86.60
47482;DHT22;33219;47.410;9.730;2023-07-31T09:12:04;24.60;84.40
47482;DHT22;33219;47.410;9.730;2023-07-31T09:14:32;24.40;87.10
47482;DHT22;33219;47.410;9.730;2023-07-31T09:17:00;24.20;90.50
47482;DHT22;33219;47.410;9.730;2023-07-31T09:19:33;24.30;90.10
47482;DHT22;33219;47.410;9.730;2023-07-31T09:22:04;24.80;87.90
47482;DHT22;33219;47.410;9.730;2023-07-31T09:24:33;25.30;87.00
47482;DHT22;33219;47.410;9.730;2023-07-31T09:27:01;25.70;84.90
47482;DHT22;33219;47.410;9.730;2023-07-31T09:32:37;26.70;83.30
47482;DHT22;33219;47.410;9.730;2023-07-31T09:35:30;26.90;85.40
47482;DHT22;33219;47.410;9.730;2023-07-31T09:38:00;27.10;82.40
47482;DHT22;33219;47.410;9.730;2023-07-31T09:40:33;27.10;82.60
47482;DHT22;33219;47.410;9.730;2023-07-31T09:43:03;26.70;82.50
47482;DHT22;33219;47.410;9.730;2023-07-31T09:45:34;26.50;83.00
47482;DHT22;33219;47.410;9.730;2023-07-31T09:48:06;26.20;80.90
47482;DHT22;33219;47.410;9.730;2023-07-31T09:50:32;25.90;82.20
47482;DHT22;33219;47.410;9.730;2023-07-31T09:53:00;25.40;81.60
47482;DHT22;33219;47.410;9.730;2023-07-31T09:55:28;25.20;83.30
47482;DHT22;33219;47.410;9.730;2023-07-31T09:57:58;24.90;83.90
47482;DHT22;33219;47.410;9.730;2023-07-31T10:00:26;25.20;83.20
47482;DHT22;33219;47.410;9.730;2023-07-31T10:02:54;25.00;82.50
47482;DHT22;33219;47.410;9.730;2023-07-31T10:05:24;24.90;83.10
47482;DHT22;33219;47.410;9.730;2023-07-31T10:07:57;24.90;84.70
47482;DHT22;33219;47.410;9.730;2023-07-31T10:10:26;25.00;84.30
47482;DHT22;33219;47.410;9.730;2023-07-31T10:12:56;25.00;85.20
47482;DHT22;33219;47.410;9.730;2023-07-31T10:15:24;25.00;85.10
47482;DHT22;33219;47.410;9.730;2023-07-31T10:17:54;24.70;85.90
47482;DHT22;33219;47.410;9.730;2023-07-31T10:20:22;24.80;85.30
47482;DHT22;33219;47.410;9.730;2023-07-31T10:22:51;24.80;84.20
47482;DHT22;33219;47.410;9.730;2023-07-31T10:25:20;25.00;84.70
47482;DHT22;33219;47.410;9.730;2023-07-31T10:27:49;25.50;84.40
47482;DHT22;33219;47.410;9.730;2023-07-31T10:30:20;25.70;83.30
47482;DHT22;33219;47.410;9.730;2023-07-31T10:32:48;25.90;83.40
47482;DHT22;33219;47.410;9.730;2023-07-31T10:35:17;26.10;82.90
47482;DHT22;33219;47.410;9.730;2023-07-31T10:37:45;26.10;82.30
47482;DHT22;33219;47.410;9.730;2023-07-31T10:40:18;26.10;83.30
47482;DHT22;33219;47.410;9.730;2023-07-31T10:42:56;26.00;82.80
47482;DHT22;33219;47.410;9.730;2023-07-31T10:45:32;26.20;82.90
47482;DHT22;33219;47.410;9.730;2023-07-31T10:48:00;26.30;83.90
47482;DHT22;33219;47.410;9.730;2023-07-31T10:50:36;26.40;83.90
47482;DHT22;33219;47.410;9.730;2023-07-31T10:53:01;26.40;83.30
47482;DHT22;33219;47.410;9.730;2023-07-31T10:55:42;26.30;84.20
47482;DHT22;33219;47.410;9.730;2023-07-31T10:58:11;26.00;82.60
47482;DHT22;33219;47.410;9.730;2023-07-31T11:00:43;25.70;83.00
47482;DHT22;33219;47.410;9.730;2023-07-31T11:03:13;25.50;84.30
47482;DHT22;33219;47.410;9.730;2023-07-31T11:05:43;25.50;85.50
47482;DHT22;33219;47.410;9.730;2023-07-31T11:11:11;25.60;84.10
47482;DHT22;33219;47.410;9.730;2023-07-31T11:13:24;25.60;85.10
47482;DHT22;33219;47.410;9.730;2023-07-31T11:15:51;25.50;87.10
47482;DHT22;33219;47.410;9.730;2023-07-31T11:18:19;25.60;88.50
47482;DHT22;33219;47.410;9.730;2023-07-31T11:20:47;25.90;90.00
47482;DHT22;33219;47.410;9.730;2023-07-31T11:23:17;26.00;89.80
47482;DHT22;33219;47.410;9.730;2023-07-31T11:25:44;25.90;89.90
47482;DHT22;33219;47.410;9.730;2023-07-31T11:28:13;25.70;90.70
47482;DHT22;33219;47.410;9.730;2023-07-31T11:30:42;25.70;88.70
47482;DHT22;33219;47.410;9.730;2023-07-31T11:33:12;25.90;89.60
47482;DHT22;33219;47.410;9.730;2023-07-31T11:35:45;26.00;87.70
47482;DHT22;33219;47.410;9.730;2023-07-31T11:38:21;26.00;87.30
47482;DHT22;33219;47.410;9.730;2023-07-31T11:40:57;26.00;89.70
47482;DHT22;33219;47.410;9.730;2023-07-31T11:43:25;26.10;88.10
47482;DHT22;33219;47.410;9.730;2023-07-31T11:45:55;25.90;88.60
47482;DHT22;33219;47.410;9.730;2023-07-31T11:48:31;25.90;86.40
47482;DHT22;33219;47.410;9.730;2023-07-31T11:51:07;26.00;86.40
47482;DHT22;33219;47.410;9.730;2023-07-31T11:53:43;26.10;86.80
47482;DHT22;33219;47.410;9.730;2023-07-31T11:56:14;26.20;86.00
47482;DHT22;33219;47.410;9.730;2023-07-31T11:58:42;26.20;87.10
47482;DHT22;33219;47.410;9.730;2023-07-31T12:01:11;26.10;86.00
47482;DHT22;33219;47.410;9.730;2023-07-31T12:03:38;26.10;87.00
47482;DHT22;33219;47.410;9.730;2023-07-31T12:06:08;26.40;87.90
47482;DHT22;33219;47.410;9.730;2023-07-31T12:08:36;26.40;88.20
47482;DHT22;33219;47.410;9.730;2023-07-31T12:11:05;26.60;90.40
47482;DHT22;33219;47.410;9.730;2023-07-31T12:13:34;26.70;86.50
47482;DHT22;33219;47.410;9.730;2023-07-31T12:16:03;26.70;86.10
47482;DHT22;33219;47.410;9.730;2023-07-31T12:18:35;26.50;85.20
47482;DHT22;33219;47.410;9.730;2023-07-31T12:21:08;26.60;86.70
47482;DHT22;33219;47.410;9.730;2023-07-31T12:23:37;26.60;84.30
47482;DHT22;33219;47.410;9.730;2023-07-31T12:26:11;26.70;84.20
47482;DHT22;33219;47.410;9.730;2023-07-31T12:31:14;26.60;84.30
47482;DHT22;33219;47.410;9.730;2023-07-31T12:33:45;26.50;85.10
47482;DHT22;33219;47.410;9.730;2023-07-31T12:36:16;26.20;87.20
47482;DHT22;33219;47.410;9.730;2023-07-31T12:38:44;26.20;87.50
47482;DHT22;33219;47.410;9.730;2023-07-31T12:41:12;26.50;87.40
47482;DHT22;33219;47.410;9.730;2023-07-31T12:43:41;26.80;86.70
47482;DHT22;33219;47.410;9.730;2023-07-31T12:46:09;26.80;85.60
47482;DHT22;33219;47.410;9.730;2023-07-31T12:48:38;26.60;84.60
47482;DHT22;33219;47.410;9.730;2023-07-31T12:51:06;26.30;84.00
47482;DHT22;33219;47.410;9.730;2023-07-31T12:53:34;26.00;85.00
47482;DHT22;33219;47.410;9.730;2023-07-31T12:56:01;25.90;85.40
47482;DHT22;33219;47.410;9.730;2023-07-31T12:58:29;25.90;86.00
47482;DHT22;33219;47.410;9.730;2023-07-31T13:00:57;26.00;86.20
47482;DHT22;33219;47.410;9.730;2023-07-31T13:03:24;25.80;87.80
47482;DHT22;33219;47.410;9.730;2023-07-31T13:05:52;25.90;87.60
47482;DHT22;33219;47.410;9.730;2023-07-31T13:08:20;26.00;88.10
47482;DHT22;33219;47.410;9.730;2023-07-31T13:10:48;26.00;85.20
47482;DHT22;33219;47.410;9.730;2023-07-31T13:13:15;26.00;86.70
47482;DHT22;33219;47.410;9.730;2023-07-31T13:15:44;26.10;87.20
47482;DHT22;33219;47.410;9.730;2023-07-31T13:18:12;26.10;85.50
47482;DHT22;33219;47.410;9.730;2023-07-31T13:20:39;26.10;83.80
47482;DHT22;33219;47.410;9.730;2023-07-31T13:23:07;26.20;84.50
47482;DHT22;33219;47.410;9.730;2023-07-31T13:25:34;26.10;85.10
47482;DHT22;33219;47.410;9.730;2023-07-31T13:28:02;26.10;83.90
47482;DHT22;33219;47.410;9.730;2023-07-31T13:30:30;26.00;86.80
47482;DHT22;33219;47.410;9.730;2023-07-31T13:32:57;25.80;85.70
47482;DHT22;33219;47.410;9.730;2023-07-31T13:35:25;25.90;86.80
47482;DHT22;33219;47.410;9.730;2023-07-31T13:37:53;25.90;88.40
47482;DHT22;33219;47.410;9.730;2023-07-31T13:40:21;26.00;84.00
47482;DHT22;33219;47.410;9.730;2023-07-31T13:42:49;26.00;84.90
47482;DHT22;33219;47.410;9.730;2023-07-31T13:45:16;25.90;84.20
47482;DHT22;33219;47.410;9.730;2023-07-31T13:47:45;25.80;86.30
47482;DHT22;33219;47.410;9.730;2023-07-31T13:50:13;25.80;88.40
47482;DHT22;33219;47.410;9.730;2023-07-31T13:52:40;25.60;88.00
47482;DHT22;33219;47.410;9.730;2023-07-31T13:55:08;25.50;88.20
47482;DHT22;33219;47.410;9.730;2023-07-31T13:57:36;25.10;87.80
47482;DHT22;33219;47.410;9.730;2023-07-31T14:00:03;25.10;86.30
47482;DHT22;33219;47.410;9.730;2023-07-31T14:02:31;25.10;85.10
47482;DHT22;33219;47.410;9.730;2023-07-31T14:04:58;25.10;86.70
47482;DHT22;33219;47.410;9.730;2023-07-31T14:07:26;24.90;87.70
47482;DHT22;33219;47.410;9.730;2023-07-31T14:09:54;24.80;83.40
47482;DHT22;33219;47.410;9.730;2023-07-31T14:12:21;24.70;84.80
47482;DHT22;33219;47.410;9.730;2023-07-31T14:14:49;24.60;83.90
47482;DHT22;33219;47.410;9.730;2023-07-31T14:17:16;24.60;89.50
47482;DHT22;33219;47.410;9.730;2023-07-31T14:19:44;24.60;87.70
47482;DHT22;33219;47.410;9.730;2023-07-31T14:22:11;24.70;85.60
47482;DHT22;33219;47.410;9.730;2023-07-31T14:24:39;24.70;84.20
47482;DHT22;33219;47.410;9.730;2023-07-31T14:27:07;24.80;86.60
47482;DHT22;33219;47.410;9.730;2023-07-31T14:29:35;24.80;87.00
47482;DHT22;33219;47.410;9.730;2023-07-31T14:32:03;24.70;90.00
47482;DHT22;33219;47.410;9.730;2023-07-31T14:34:31;24.70;88.70
47482;DHT22;33219;47.410;9.730;2023-07-31T14:36:58;24.90;86.10
47482;DHT22;33219;47.410;9.730;2023-07-31T14:39:26;24.70;89.20
47482;DHT22;33219;47.410;9.730;2023-07-31T14:41:53;24.80;86.20
47482;DHT22;33219;47.410;9.730;2023-07-31T14:44:21;24.90;89.50
47482;DHT22;33219;47.410;9.730;2023-07-31T14:46:49;24.80;90.20
47482;DHT22;33219;47.410;9.730;2023-07-31T14:49:16;24.70;90.20
47482;DHT22;33219;47.410;9.730;2023-07-31T14:51:44;24.80;86.50
47482;DHT22;33219;47.410;9.730;2023-07-31T14:54:11;25.00;86.00
47482;DHT22;33219;47.410;9.730;2023-07-31T14:56:39;25.10;82.70
47482;DHT22;33219;47.410;9.730;2023-07-31T14:59:06;25.10;83.20
47482;DHT22;33219;47.410;9.730;2023-07-31T15:01:35;25.10;83.00
47482;DHT22;33219;47.410;9.730;2023-07-31T15:04:03;24.90;83.70
47482;DHT22;33219;47.410;9.730;2023-07-31T15:06:31;24.90;83.70
47482;DHT22;33219;47.410;9.730;2023-07-31T15:08:58;24.90;84.00
47482;DHT22;33219;47.410;9.730;2023-07-31T15:11:26;24.90;84.70
47482;DHT22;33219;47.410;9.730;2023-07-31T15:13:53;25.10;85.60
47482;DHT22;33219;47.410;9.730;2023-07-31T15:16:21;25.10;84.00
47482;DHT22;33219;47.410;9.730;2023-07-31T15:18:48;25.20;85.00
47482;DHT22;33219;47.410;9.730;2023-07-31T15:21:16;25.10;83.10
47482;DHT22;33219;47.410;9.730;2023-07-31T15:23:43;25.20;83.80
47482;DHT22;33219;47.410;9.730;2023-07-31T15:26:11;25.20;85.40
47482;DHT22;33219;47.410;9.730;2023-07-31T15:28:38;25.20;83.60
47482;DHT22;33219;47.410;9.730;2023-07-31T15:31:06;25.00;85.90
47482;DHT22;33219;47.410;9.730;2023-07-31T15:33:34;25.00;84.50
47482;DHT22;33219;47.410;9.730;2023-07-31T15:36:01;24.90;84.20
47482;DHT22;33219;47.410;9.730;2023-07-31T15:38:29;24.90;84.40
47482;DHT22;33219;47.410;9.730;2023-07-31T15:40:57;24.70;85.00
47482;DHT22;33219;47.410;9.730;2023-07-31T15:43:25;24.60;84.20
47482;DHT22;33219;47.410;9.730;2023-07-31T15:45:52;24.60;82.30
47482;DHT22;33219;47.410;9.730;2023-07-31T15:48:20;24.50;83.90
47482;DHT22;33219;47.410;9.730;2023-07-31T15:50:47;24.40;83.80